Time;durP1;ratioP1;P1;durP2;ratioP2;P2;SDS_P1;SDS_P2;PMS_P1;PMS_P2;Temp;Humidity;BMP_temperature;BMP_pressure;BME280_temperature;BME280_humidity;BME280_pressure;Samples;Min_cycle;Max_cycle;Signal;HPM_P1;HPM_P2
2022/12/12 00:01:32;;;;;;;0.20;0.20;;;-3.40;99.90;-5.10;96031.00;;;;5076401;28;20239;-74
2022/12/12 00:04:01;;;;;;;0.20;0.20;;;-3.40;99.90;-5.20;96034.00;;;;5071883;28;20266;-75
2022/12/12 00:06:30;;;;;;;0.20;0.20;;;-3.40;99.90;-5.10;96023.00;;;;5072200;28;20690;-74
2022/12/12 00:08:58;;;;;;;0.20;0.20;;;-3.30;99.90;-5.10;96031.00;;;;5070357;28;20221;-74
2022/12/12 00:11:28;;;;;;;0.20;0.20;;;-3.30;99.90;-5.10;96025.00;;;;5072983;28;20198;-73
2022/12/12 00:13:57;;;;;;;0.20;0.20;;;-3.30;99.90;-5.10;96025.00;;;;5072013;28;20266;-74
2022/12/12 00:16:25;;;;;;;0.20;0.20;;;-3.30;99.90;-5.10;96027.00;;;;5071897;28;20201;-73
2022/12/12 00:18:54;;;;;;;0.20;0.20;;;-3.30;99.90;-5.00;96009.00;;;;5065994;28;20287;-73
2022/12/12 00:21:25;;;;;;;0.20;0.20;;;-3.30;99.90;-5.00;96022.00;;;;5071835;28;20201;-75
2022/12/12 00:23:54;;;;;;;0.20;0.20;;;-3.30;99.90;-5.00;96022.00;;;;5071686;28;20251;-74
2022/12/12 00:26:28;;;;;;;0.20;0.20;;;-3.20;99.90;-5.00;96012.00;;;;5071417;28;20220;-73
2022/12/12 00:28:58;;;;;;;0.10;0.10;;;-3.30;99.90;-4.90;96024.00;;;;5072107;28;20263;-74
2022/12/12 00:31:27;;;;;;;0.20;0.20;;;-3.20;99.90;-4.80;96029.00;;;;5071965;28;20194;-74
2022/12/12 00:33:55;;;;;;;0.20;0.20;;;-3.10;99.90;-4.70;96041.00;;;;5072623;28;20209;-74
2022/12/12 00:36:27;;;;;;;0.10;0.10;;;-3.00;99.90;-4.70;96057.00;;;;5071667;28;20224;-73
2022/12/12 00:38:56;;;;;;;0.20;0.20;;;-3.00;99.90;-5.00;96028.00;;;;5075272;28;20201;-72
2022/12/12 00:41:24;;;;;;;0.10;0.10;;;-3.00;99.90;-4.70;96029.00;;;;5075274;28;20185;-74
2022/12/12 00:43:54;;;;;;;0.20;0.20;;;-2.90;99.90;-4.70;96040.00;;;;5075114;28;20246;-74
2022/12/12 00:46:25;;;;;;;0.20;0.20;;;-2.90;99.90;-4.60;96040.00;;;;5075106;28;20736;-74
2022/12/12 00:48:56;;;;;;;0.10;0.10;;;-2.90;99.90;-4.60;96040.00;;;;5075212;28;20296;-75
2022/12/12 00:51:26;;;;;;;0.20;0.20;;;-2.90;99.90;-4.60;96044.00;;;;5075633;28;20247;-74
2022/12/12 00:53:56;;;;;;;0.20;0.20;;;-2.80;99.90;-4.40;96057.00;;;;5076299;28;20217;-74
2022/12/12 00:56:25;;;;;;;0.20;0.20;;;-2.80;99.90;-4.50;96061.00;;;;5076455;28;20197;-75
2022/12/12 00:58:55;;;;;;;0.10;0.10;;;-2.70;99.90;-4.50;96063.00;;;;5074864;28;20213;-75
2022/12/12 01:01:26;;;;;;;0.20;0.20;;;-2.70;99.90;-4.50;96063.00;;;;5075496;28;20197;-75
2022/12/12 01:03:55;;;;;;;0.10;0.10;;;-2.70;99.90;-4.70;96038.00;;;;5080132;28;20212;-75
2022/12/12 01:06:24;;;;;;;0.10;0.10;;;-2.80;99.90;-4.60;96046.00;;;;5069038;28;20205;-76
2022/12/12 01:08:53;;;;;;;0.20;0.20;;;-2.80;99.90;-4.60;96056.00;;;;5074643;28;20206;-75
2022/12/12 01:11:23;;;;;;;0.20;0.20;;;-2.80;99.90;-4.60;96052.00;;;;5074648;28;20194;-75
2022/12/12 01:13:53;;;;;;;0.10;0.10;;;-2.80;99.90;-4.50;96055.00;;;;5074292;28;20271;-75
2022/12/12 01:16:24;;;;;;;0.20;0.20;;;-2.70;99.90;-4.40;96064.00;;;;5076598;28;20190;-76
2022/12/12 01:18:53;;;;;;;0.20;0.20;;;-2.70;99.90;-4.30;96084.00;;;;5076313;28;20217;-76
2022/12/12 01:21:21;;;;;;;0.20;0.20;;;-2.50;99.90;-4.40;96064.00;;;;5068024;28;20205;-74
2022/12/12 01:23:50;;;;;;;0.20;0.20;;;-2.60;99.90;-4.30;96073.00;;;;5072012;28;20194;-75
2022/12/12 01:26:22;;;;;;;0.20;0.20;;;-2.60;99.90;-4.40;96075.00;;;;5075643;28;20194;-75
2022/12/12 01:28:52;;;;;;;0.20;0.20;;;-2.60;99.90;-4.50;96055.00;;;;5075552;28;20217;-76
2022/12/12 01:31:21;;;;;;;0.10;0.10;;;-2.70;99.90;-4.40;96062.00;;;;5075569;28;20544;-75
2022/12/12 01:33:51;;;;;;;0.10;0.10;;;-2.70;99.90;-4.30;96025.00;;;;5075932;28;20297;-76
2022/12/12 01:36:22;;;;;;;0.10;0.10;;;-2.60;99.90;-4.40;96068.00;;;;5074447;28;20891;-75
2022/12/12 01:38:55;;;;;;;0.10;0.10;;;-2.60;99.90;-4.30;96068.00;;;;5074094;28;20702;-75
2022/12/12 01:41:24;;;;;;;0.10;0.10;;;-2.50;99.90;-4.50;96089.00;;;;5074274;28;20209;-74
2022/12/12 01:43:53;;;;;;;0.10;0.10;;;-2.60;99.90;-5.10;96028.00;;;;5074199;28;20194;-75
2022/12/12 01:46:44;;;;;;;0.20;0.20;;;-2.60;99.90;-4.50;96071.00;;;;5069274;28;20197;-75
2022/12/12 01:49:23;;;;;;;0.10;0.10;;;-2.60;99.90;-4.50;96072.00;;;;5072033;28;20221;-75
2022/12/12 01:51:56;;;;;;;0.20;0.20;;;-2.60;99.90;-4.50;96063.00;;;;5077354;28;20220;-75
2022/12/12 01:54:29;;;;;;;0.20;0.20;;;-2.70;99.90;-4.50;96059.00;;;;5079533;28;20252;-75
2022/12/12 01:57:03;;;;;;;0.20;0.20;;;-2.70;99.90;-4.60;96069.00;;;;5079621;28;20206;-75
2022/12/12 01:59:34;;;;;;;0.10;0.10;;;-2.80;99.90;-4.60;96062.00;;;;5074329;28;20263;-76
2022/12/12 02:02:04;;;;;;;0.20;0.20;;;-2.80;99.90;-4.60;96059.00;;;;5074511;28;20190;-75
2022/12/12 02:04:34;;;;;;;0.10;0.10;;;-2.80;99.90;-4.80;96026.00;;;;5073785;28;20272;-75
2022/12/12 02:07:04;;;;;;;0.20;0.20;;;-2.90;99.90;-4.80;96052.00;;;;5073795;28;20594;-75
2022/12/12 02:09:35;;;;;;;0.15;0.15;;;-3.00;99.90;-4.60;96067.00;;;;5074025;28;20259;-75
2022/12/12 02:12:03;;;;;;;0.20;0.20;;;-2.90;99.90;-4.60;96078.00;;;;5073722;28;20198;-76
2022/12/12 02:14:37;;;;;;;0.17;0.17;;;-2.90;99.90;-4.70;96072.00;;;;5073850;28;20213;-75
2022/12/12 02:17:53;;;;;;;0.10;0.10;;;-2.90;99.90;-4.50;96076.00;;;;5073965;28;20581;-75
2022/12/12 02:20:51;;;;;;;0.20;0.20;;;-2.80;99.90;-4.50;96086.00;;;;5070595;28;20213;-75
2022/12/12 02:24:00;;;;;;;0.20;0.20;;;-2.70;99.90;-4.40;96094.00;;;;5070423;28;20575;-73
2022/12/12 02:27:14;;;;;;;0.20;0.20;;;-2.70;99.90;-4.40;96092.00;;;;5043705;28;20225;-73
2022/12/12 02:30:16;;;;;;;0.20;0.20;;;-2.60;99.90;-4.50;96078.00;;;;5029569;28;20229;-74
2022/12/12 02:33:25;;;;;;;0.20;0.20;;;-2.70;99.90;-4.50;96087.00;;;;5071776;28;20215;-74
2022/12/12 02:36:11;;;;;;;0.10;0.10;;;-2.70;99.90;-4.50;96012.00;;;;5061267;28;20229;-74
2022/12/12 02:38:55;;;;;;;0.20;0.20;;;-2.70;99.90;-4.40;95974.00;;;;5073868;28;20228;-73
2022/12/12 02:41:34;;;;;;;0.10;0.10;;;-2.70;99.90;-4.50;96068.00;;;;5065048;28;20186;-73
2022/12/12 02:44:18;;;;;;;0.10;0.10;;;-2.70;99.90;-4.50;96085.00;;;;5073669;28;20189;-73
2022/12/12 02:46:55;;;;;;;0.10;0.10;;;-2.70;99.90;-4.60;96090.00;;;;5073652;28;20189;-73
2022/12/12 02:49:33;;;;;;;0.10;0.10;;;-2.80;99.90;-4.70;96084.00;;;;5073657;28;20213;-73
2022/12/12 02:52:04;;;;;;;0.20;0.20;;;-2.80;99.90;-4.60;96090.00;;;;5073108;28;20202;-73
2022/12/12 02:54:33;;;;;;;0.20;0.20;;;-2.80;99.90;-4.50;96088.00;;;;5086078;28;20263;-72
2022/12/12 02:57:03;;;;;;;0.20;0.20;;;-2.70;99.90;-4.70;96071.00;;;;5072888;28;20249;-73
2022/12/12 02:59:36;;;;;;;0.20;0.20;;;-2.80;99.90;-4.60;96090.00;;;;5076717;28;20222;-73
2022/12/12 03:02:46;;;;;;;0.20;0.20;;;-2.80;99.90;-4.50;96108.00;;;;5078101;28;20248;-73
2022/12/12 03:08:48;;;;;;;0.20;0.20;;;-2.80;99.90;-4.70;96078.00;;;;5063771;28;20270;-72
2022/12/12 03:11:32;;;;;;;0.20;0.20;;;-2.90;99.90;-4.70;96075.00;;;;5072593;28;20258;-73
2022/12/12 03:14:11;;;;;;;0.20;0.20;;;-2.90;99.90;-4.60;96030.00;;;;5072721;28;20197;-74
2022/12/12 03:16:50;;;;;;;0.20;0.20;;;-2.80;99.90;-4.60;96081.00;;;;5071406;28;20202;-74
2022/12/12 03:19:28;;;;;;;0.20;0.20;;;-2.80;99.90;-4.50;96082.00;;;;5068737;28;20218;-74
2022/12/12 03:22:07;;;;;;;0.20;0.20;;;-2.80;99.90;-4.50;96088.00;;;;5080150;28;20202;-74
2022/12/12 03:24:47;;;;;;;0.20;0.20;;;-2.70;99.90;-4.50;96098.00;;;;5074638;28;20277;-73
2022/12/12 03:27:24;;;;;;;0.20;0.20;;;-2.80;99.90;-4.50;96082.00;;;;5068924;28;20193;-73
2022/12/12 03:29:56;;;;;;;0.13;0.13;;;-2.70;99.90;-4.40;96085.00;;;;5071788;28;20217;-74
2022/12/12 03:32:30;;;;;;;0.20;0.20;;;-2.70;99.90;-4.40;96079.00;;;;5072259;28;20667;-74
2022/12/12 03:35:06;;;;;;;0.20;0.20;;;-2.70;99.90;-4.50;96091.00;;;;5072681;28;20581;-73
2022/12/12 03:37:41;;;;;;;0.10;0.10;;;-2.70;99.90;-4.50;96077.00;;;;5071640;28;20201;-73
2022/12/12 03:40:17;;;;;;;0.10;0.10;;;-2.70;99.90;-4.50;96090.00;;;;5071805;28;20243;-73
2022/12/12 03:42:53;;;;;;;0.20;0.20;;;-2.70;99.90;-4.40;96092.00;;;;5086325;28;20193;-74
2022/12/12 03:45:30;;;;;;;0.10;0.10;;;-2.70;99.90;-4.30;96094.00;;;;5071780;28;20186;-74
2022/12/12 03:48:07;;;;;;;0.20;0.20;;;-2.60;99.90;-4.50;96091.00;;;;5068626;28;20764;-73
2022/12/12 03:50:42;;;;;;;0.20;0.20;;;-2.60;99.90;-4.30;96092.00;;;;5071310;28;20193;-72
2022/12/12 03:53:20;;;;;;;0.10;0.10;;;-2.60;99.90;-4.30;96062.00;;;;5069915;28;20606;-73
2022/12/12 03:55:55;;;;;;;0.20;0.20;;;-2.50;99.90;-4.20;96080.00;;;;5066580;28;20216;-73
2022/12/12 03:58:30;;;;;;;0.20;0.20;;;-2.50;99.90;-4.20;96087.00;;;;5071655;28;20221;-74
2022/12/12 04:01:03;;;;;;;0.20;0.20;;;-2.50;99.90;-4.20;96109.00;;;;5071259;28;20201;-73
2022/12/12 04:03:40;;;;;;;0.20;0.20;;;-2.50;99.90;-4.30;96123.00;;;;5073541;28;20189;-73
2022/12/12 04:06:28;;;;;;;0.20;0.20;;;-2.60;99.90;-4.40;96085.00;;;;5076562;28;20205;-72
2022/12/12 04:15:22;;;;;;;0.20;0.20;;;-2.50;99.90;-4.30;96096.00;;;;5071674;28;20665;-73
2022/12/12 04:18:08;;;;;;;0.20;0.20;;;-2.60;99.90;-4.30;96098.00;;;;5069969;28;20246;-73
2022/12/12 04:23:39;;;;;;;0.20;0.20;;;-2.70;99.90;-4.50;96104.00;;;;5067292;28;20201;-73
2022/12/12 04:29:16;;;;;;;0.20;0.20;;;-2.80;99.90;-4.50;96099.00;;;;5070996;28;20220;-72
2022/12/12 04:31:51;;;;;;;0.20;0.20;;;-2.80;99.90;-4.50;96100.00;;;;5071196;28;20209;-74
2022/12/12 04:34:42;;;;;;;0.10;0.10;;;-2.80;99.90;-4.60;96113.00;;;;5071364;28;20276;-73
2022/12/12 04:37:16;;;;;;;0.20;0.20;;;-2.80;99.90;-4.60;96032.00;;;;5071365;28;20523;-73
2022/12/12 04:39:49;;;;;;;0.20;0.20;;;-2.90;99.90;-4.50;96103.00;;;;5074118;28;20208;-73
2022/12/12 04:42:24;;;;;;;0.20;0.20;;;-2.80;99.90;-4.50;96114.00;;;;5069071;28;20182;-74
2022/12/12 04:44:57;;;;;;;0.20;0.20;;;-2.70;99.90;-4.50;96107.00;;;;5068395;28;20185;-73
2022/12/12 04:47:29;;;;;;;0.20;0.20;;;-2.70;99.90;-4.40;96109.00;;;;5070621;28;20262;-73
2022/12/12 04:50:02;;;;;;;0.17;0.17;;;-2.60;99.90;-4.30;96107.00;;;;5062444;28;20218;-73
2022/12/12 04:52:33;;;;;;;0.20;0.20;;;-2.60;99.90;-4.30;96115.00;;;;5070595;28;20194;-72
2022/12/12 04:55:08;;;;;;;0.10;0.10;;;-2.60;99.90;-4.40;96085.00;;;;5070989;28;20198;-72
2022/12/12 04:57:49;;;;;;;0.10;0.10;;;-2.60;99.90;-4.50;96129.00;;;;5079413;28;20188;-71
2022/12/12 05:00:19;;;;;;;0.10;0.10;;;-2.60;99.90;-4.50;96106.00;;;;5068206;28;20235;-70
2022/12/12 05:02:56;;;;;;;0.10;0.10;;;-2.70;99.90;-4.50;96122.00;;;;5070251;28;20190;-74
2022/12/12 05:05:30;;;;;;;0.10;0.10;;;-2.70;99.90;-4.30;96125.00;;;;5068834;28;20243;-70
2022/12/12 05:08:07;;;;;;;0.10;0.10;;;-2.60;99.90;-4.30;96134.00;;;;5070648;28;20210;-72
2022/12/12 05:10:42;;;;;;;0.20;0.20;;;-2.60;99.90;-4.40;96142.00;;;;5072384;28;20197;-71
2022/12/12 05:13:18;;;;;;;0.10;0.10;;;-2.60;99.90;-4.50;96130.00;;;;5069387;28;20251;-70
2022/12/12 05:15:49;;;;;;;0.20;0.20;;;-2.70;99.90;-4.50;96144.00;;;;5066075;28;20214;-70
2022/12/12 05:18:17;;;;;;;0.20;0.20;;;-2.70;99.90;-4.50;96121.00;;;;5069268;28;20221;-71
2022/12/12 05:20:46;;;;;;;0.20;0.20;;;-2.70;99.90;-4.40;96144.00;;;;5069712;28;20198;-72
2022/12/12 05:23:14;;;;;;;0.20;0.20;;;-2.70;99.90;-4.40;96148.00;;;;5069319;28;20299;-71
2022/12/12 05:25:42;;;;;;;0.20;0.20;;;-2.70;99.90;-4.40;96135.00;;;;5085840;28;20276;-71
2022/12/12 05:28:11;;;;;;;0.20;0.20;;;-2.70;99.90;-4.40;96143.00;;;;5074280;28;20633;-73
2022/12/12 05:30:40;;;;;;;0.20;0.20;;;-2.60;99.90;-4.20;96139.00;;;;5074263;28;20555;-71
2022/12/12 05:33:08;;;;;;;0.20;0.20;;;-2.50;99.90;-4.30;96129.00;;;;5073973;28;20564;-74
2022/12/12 05:35:36;;;;;;;0.20;0.20;;;-2.60;99.90;-4.50;96127.00;;;;5075107;28;20709;-72
2022/12/12 05:38:05;;;;;;;0.20;0.20;;;-2.70;99.90;-4.60;96123.00;;;;5075603;28;20208;-71
2022/12/12 05:40:34;;;;;;;0.20;0.20;;;-2.80;99.90;-4.60;96114.00;;;;5074852;28;20194;-72
2022/12/12 05:43:03;;;;;;;0.10;0.10;;;-2.80;99.90;-4.60;96135.00;;;;5075266;28;20603;-72
2022/12/12 05:45:31;;;;;;;0.20;0.20;;;-2.80;99.90;-4.60;96144.00;;;;5065049;28;20566;-72
2022/12/12 05:48:01;;;;;;;0.20;0.20;;;-2.90;99.90;-4.60;96128.00;;;;5073633;28;20722;-71
2022/12/12 05:50:29;;;;;;;0.20;0.20;;;-2.90;99.90;-4.70;96144.00;;;;5077771;28;20200;-72
2022/12/12 05:52:57;;;;;;;0.20;0.20;;;-2.90;99.90;-4.60;96153.00;;;;5075785;28;20227;-71
2022/12/12 05:55:25;;;;;;;0.10;0.10;;;-2.80;99.90;-4.60;96147.00;;;;5074368;28;20186;-71
2022/12/12 05:57:53;;;;;;;0.20;0.20;;;-2.80;99.90;-4.60;96143.00;;;;5081665;28;20213;-72
2022/12/12 06:00:22;;;;;;;0.20;0.20;;;-2.90;99.90;-4.50;96146.00;;;;5074749;28;20197;-72
2022/12/12 06:02:50;;;;;;;0.20;0.20;;;-2.80;99.90;-4.50;96157.00;;;;5084492;28;20552;-72
2022/12/12 06:05:19;;;;;;;0.20;0.20;;;-2.80;99.90;-4.60;96149.00;;;;5094640;28;20273;-72
2022/12/12 06:07:48;;;;;;;0.10;0.10;;;-2.70;99.90;-4.60;96147.00;;;;5094619;28;20201;-72
2022/12/12 06:10:16;;;;;;;0.15;0.15;;;-2.80;99.90;-4.60;96154.00;;;;5095544;28;20189;-73
2022/12/12 06:12:44;;;;;;;0.20;0.20;;;-2.80;99.90;-4.50;96174.00;;;;5094236;28;20193;-77
2022/12/12 06:15:14;;;;;;;0.20;0.20;;;-2.70;99.90;-4.50;96167.00;;;;5095025;28;20281;-72
2022/12/12 06:17:42;;;;;;;0.20;0.20;;;-2.70;99.90;-4.50;96154.00;;;;5092959;28;20233;-72
2022/12/12 06:20:11;;;;;;;0.20;0.20;;;-2.70;99.90;-4.60;96153.00;;;;5094397;28;20193;-72
2022/12/12 06:22:41;;;;;;;0.20;0.20;;;-2.80;99.90;-4.70;96161.00;;;;5094431;28;20185;-73
2022/12/12 06:25:10;;;;;;;0.20;0.20;;;-2.80;99.90;-4.50;96173.00;;;;5092584;28;20204;-73
2022/12/12 06:27:39;;;;;;;0.20;0.20;;;-2.70;99.90;-4.50;96159.00;;;;5092917;28;20209;-72
2022/12/12 06:30:09;;;;;;;0.20;0.20;;;-2.70;99.90;-4.60;96158.00;;;;5093901;28;20193;-72
2022/12/12 06:32:37;;;;;;;0.20;0.20;;;-2.70;99.90;-4.60;96153.00;;;;5094282;28;20193;-74
2022/12/12 06:35:06;;;;;;;0.20;0.20;;;-2.80;99.90;-4.60;96122.00;;;;5094179;28;20242;-72
2022/12/12 06:37:35;;;;;;;0.20;0.20;;;-2.80;99.90;-4.60;96154.00;;;;5095142;28;20266;-72
2022/12/12 06:40:05;;;;;;;0.20;0.20;;;-2.80;99.90;-4.60;96153.00;;;;5081180;28;20197;-72
2022/12/12 06:42:33;;;;;;;0.10;0.10;;;-2.90;99.90;-4.60;96160.00;;;;5073885;28;20252;-72
2022/12/12 06:45:02;;;;;;;0.20;0.20;;;-2.80;99.90;-4.60;96155.00;;;;5072587;28;20194;-72
2022/12/12 06:47:30;;;;;;;0.20;0.20;;;-2.80;99.90;-4.50;96160.00;;;;5074151;28;20197;-72
2022/12/12 06:49:58;;;;;;;0.20;0.20;;;-2.80;99.90;-4.60;96176.00;;;;5073497;28;20763;-72
2022/12/12 06:52:27;;;;;;;0.20;0.20;;;-2.80;99.90;-4.60;96163.00;;;;5073521;28;20247;-72
2022/12/12 06:54:55;;;;;;;0.20;0.20;;;-2.80;99.90;-4.60;96152.00;;;;5073436;28;20186;-72
2022/12/12 06:57:24;;;;;;;0.20;0.20;;;-2.80;99.90;-4.60;96158.00;;;;5073873;28;20593;-72
2022/12/12 06:59:52;;;;;;;0.20;0.20;;;-2.80;99.90;-4.70;96158.00;;;;5074222;28;20339;-73
2022/12/12 07:02:20;;;;;;;0.15;0.15;;;-2.80;99.90;-4.60;96178.00;;;;5073884;28;20233;-73
2022/12/12 07:04:57;;;;;;;0.20;0.20;;;-2.80;99.90;-4.80;96168.00;;;;5073168;28;20257;-73
2022/12/12 07:07:25;;;;;;;0.20;0.20;;;-2.90;99.90;-4.70;96184.00;;;;5073217;28;20594;-72
2022/12/12 07:09:53;;;;;;;0.15;0.15;;;-3.00;99.90;-4.70;96180.00;;;;5073498;28;20250;-72
2022/12/12 07:12:21;;;;;;;0.20;0.20;;;-3.00;99.90;-4.80;96172.00;;;;5067002;28;20226;-72
2022/12/12 07:14:51;;;;;;;0.17;0.17;;;-3.00;99.90;-4.80;96174.00;;;;5056498;28;20222;-72
2022/12/12 07:17:19;;;;;;;0.20;0.20;;;-3.00;99.90;-4.70;96180.00;;;;5073299;28;20213;-72
2022/12/12 07:19:47;;;;;;;0.20;0.20;;;-2.90;99.90;-4.60;96184.00;;;;5067402;28;20275;-72
2022/12/12 07:22:15;;;;;;;0.20;0.20;;;-2.80;99.90;-4.70;96187.00;;;;5053616;28;20194;-72
2022/12/12 07:24:43;;;;;;;0.20;0.20;;;-2.90;99.90;-4.70;96202.00;;;;5053192;28;20190;-75
2022/12/12 07:27:11;;;;;;;0.10;0.10;;;-2.90;99.90;-4.70;96196.00;;;;5053966;28;20203;-73
2022/12/12 07:29:47;;;;;;;0.20;0.20;;;-2.90;99.90;-4.80;96185.00;;;;5062018;28;20270;-71
2022/12/12 07:32:16;;;;;;;0.20;0.20;;;-3.00;99.90;-4.80;96201.00;;;;5061938;28;20194;-71
2022/12/12 07:34:44;;;;;;;0.10;0.10;;;-3.10;99.90;-4.80;96202.00;;;;5058872;28;20195;-71
2022/12/12 07:37:12;;;;;;;0.20;0.20;;;-3.00;99.90;-4.80;96186.00;;;;5053127;28;20224;-72
2022/12/12 07:39:40;;;;;;;0.20;0.20;;;-3.00;99.90;-4.80;96195.00;;;;5055494;28;20215;-71
2022/12/12 07:42:09;;;;;;;0.20;0.20;;;-3.10;99.90;-4.80;96204.00;;;;5061328;28;20248;-72
2022/12/12 07:44:37;;;;;;;0.20;0.20;;;-3.00;99.90;-4.70;96189.00;;;;5051703;28;20205;-71
2022/12/12 07:47:05;;;;;;;0.20;0.20;;;-3.00;99.90;-4.70;96193.00;;;;5051608;28;20260;-74
2022/12/12 07:49:34;;;;;;;0.10;0.10;;;-3.00;99.90;-4.70;96202.00;;;;5067917;28;20275;-71
2022/12/12 07:52:03;;;;;;;0.20;0.20;;;-3.00;99.90;-4.90;96167.00;;;;5072332;28;20215;-72
2022/12/12 07:54:31;;;;;;;0.20;0.20;;;-3.20;99.90;-4.90;96199.00;;;;5072333;28;20190;-72
2022/12/12 07:57:00;;;;;;;0.10;0.10;;;-3.20;99.90;-4.80;96213.00;;;;5071807;28;20213;-71
2022/12/12 07:59:28;;;;;;;0.20;0.20;;;-3.10;99.90;-4.90;96200.00;;;;5072513;28;20235;-73
2022/12/12 08:01:56;;;;;;;0.20;0.20;;;-3.20;99.90;-5.00;96213.00;;;;5072086;28;20224;-75
2022/12/12 08:04:24;;;;;;;0.20;0.20;;;-3.20;99.90;-4.90;96213.00;;;;5072061;28;20361;-73
2022/12/12 08:06:56;;;;;;;0.20;0.20;;;-3.20;99.90;-4.90;96217.00;;;;5071569;28;20243;-73
2022/12/12 08:09:32;;;;;;;0.17;0.17;;;-3.20;99.90;-4.80;96218.00;;;;5069322;28;20209;-72
2022/12/12 08:12:00;;;;;;;0.20;0.20;;;-3.10;99.90;-4.80;96211.00;;;;5060669;28;20268;-73
2022/12/12 08:14:29;;;;;;;0.10;0.10;;;-3.10;99.90;-4.80;96229.00;;;;5052196;28;20202;-73
2022/12/12 08:16:57;;;;;;;0.20;0.20;;;-3.10;99.90;-4.80;96209.00;;;;5051913;28;20190;-72
2022/12/12 08:19:25;;;;;;;0.13;0.13;;;-3.10;99.90;-4.80;96221.00;;;;5069769;28;20229;-72
2022/12/12 08:21:55;;;;;;;0.20;0.20;;;-3.00;99.90;-4.80;96218.00;;;;5072362;28;20223;-72
2022/12/12 08:24:23;;;;;;;0.10;0.10;;;-3.00;99.90;-4.80;96218.00;;;;5072800;28;20708;-72
2022/12/12 08:26:52;;;;;;;0.20;0.20;;;-3.10;99.90;-4.70;96238.00;;;;5072795;28;20216;-72
2022/12/12 08:29:20;;;;;;;0.20;0.20;;;-3.00;99.90;-4.70;96251.00;;;;5072894;28;20705;-72
2022/12/12 08:31:48;;;;;;;0.13;0.13;;;-2.90;99.90;-4.60;96231.00;;;;5073121;28;20625;-73
2022/12/12 08:34:18;;;;;;;0.20;0.20;;;-2.90;99.90;-4.60;96234.00;;;;5072728;28;20269;-73
2022/12/12 08:36:46;;;;;;;0.10;0.10;;;-2.90;99.90;-4.60;96244.00;;;;5072321;28;20185;-73
2022/12/12 08:39:16;;;;;;;0.20;0.20;;;-3.00;99.90;-4.70;96132.00;;;;5071772;28;20214;-72
2022/12/12 08:41:47;;;;;;;0.10;0.10;;;-3.00;99.90;-4.70;96248.00;;;;5072235;28;20190;-72
2022/12/12 08:44:18;;;;;;;0.20;0.20;;;-3.10;99.90;-4.70;96230.00;;;;5071933;28;20538;-73
2022/12/12 08:46:47;;;;;;;0.20;0.20;;;-3.10;99.90;-4.70;96242.00;;;;5071202;28;20239;-73
2022/12/12 08:49:16;;;;;;;0.20;0.20;;;-3.10;99.90;-4.70;96247.00;;;;5071778;28;20267;-72
2022/12/12 08:51:44;;;;;;;0.20;0.20;;;-3.00;99.90;-4.70;96241.00;;;;5087308;28;20198;-72
2022/12/12 08:54:14;;;;;;;0.20;0.20;;;-3.10;99.90;-4.70;96250.00;;;;5071328;28;20198;-73
2022/12/12 08:56:42;;;;;;;0.10;0.10;;;-3.00;99.90;-4.70;96259.00;;;;5104271;28;20205;-73
2022/12/12 08:59:10;;;;;;;0.20;0.20;;;-3.00;99.90;-4.60;96287.00;;;;5067083;28;20280;-72
2022/12/12 09:01:39;;;;;;;0.20;0.20;;;-3.00;99.90;-4.60;96279.00;;;;5055970;28;20198;-72
2022/12/12 09:04:07;;;;;;;0.20;0.20;;;-2.90;99.90;-4.50;96275.00;;;;5069891;28;20205;-72
2022/12/12 09:06:36;;;;;;;0.20;0.20;;;-2.80;99.90;-4.50;96264.00;;;;5075399;28;20205;-72
2022/12/12 09:09:04;;;;;;;0.20;0.20;;;-2.80;99.90;-4.50;96269.00;;;;5074974;28;20267;-72
2022/12/12 09:11:33;;;;;;;0.20;0.20;;;-2.80;99.90;-4.40;96272.00;;;;5075159;28;20253;-73
2022/12/12 09:14:02;;;;;;;0.10;0.10;;;-2.70;99.90;-4.20;96285.00;;;;5074993;28;20190;-72
2022/12/12 09:16:30;;;;;;;0.10;0.10;;;-2.60;99.90;-4.20;96299.00;;;;5074870;28;20209;-73
2022/12/12 09:18:58;;;;;;;0.10;0.10;;;-2.50;99.90;-4.20;96290.00;;;;5074679;28;20653;-73
2022/12/12 09:21:27;;;;;;;0.10;0.10;;;-2.50;99.90;-4.20;96293.00;;;;5075032;28;20605;-73
2022/12/12 09:23:55;;;;;;;0.20;0.20;;;-2.50;99.90;-4.20;96244.00;;;;5074447;28;20210;-72
2022/12/12 09:26:23;;;;;;;0.20;0.20;;;-2.50;99.90;-4.30;96264.00;;;;5074812;28;20213;-72
2022/12/12 09:28:52;;;;;;;0.20;0.20;;;-2.60;99.90;-4.40;96273.00;;;;5074991;28;20221;-72
2022/12/12 09:31:21;;;;;;;0.20;0.20;;;-2.70;99.90;-4.40;96195.00;;;;5074960;28;20254;-72
2022/12/12 09:33:49;;;;;;;0.20;0.20;;;-2.70;99.90;-4.40;96269.00;;;;5074604;28;20190;-71
2022/12/12 09:36:18;;;;;;;0.20;0.20;;;-2.70;99.90;-4.30;96276.00;;;;5074697;28;20194;-72
2022/12/12 09:38:46;;;;;;;0.20;0.20;;;-2.60;99.90;-4.30;96281.00;;;;5074966;28;20217;-72
2022/12/12 09:41:18;;;;;;;0.15;0.15;;;-2.60;99.90;-4.20;96288.00;;;;5074731;28;20269;-72
2022/12/12 09:43:57;;;;;;;0.20;0.20;;;-2.50;99.90;-4.10;96288.00;;;;5074589;28;20243;-72
2022/12/12 09:46:34;;;;;;;0.20;0.20;;;-2.50;99.90;-4.00;96278.00;;;;5074665;28;20197;-72
2022/12/12 09:49:17;;;;;;;0.10;0.10;;;-2.40;99.90;-4.10;96278.00;;;;5074891;28;20289;-72
2022/12/12 09:51:50;;;;;;;0.20;0.20;;;-2.40;99.90;-4.00;96274.00;;;;5076173;28;20185;-72
2022/12/12 09:54:22;;;;;;;0.20;0.20;;;-2.30;99.90;-4.00;96262.00;;;;5076422;28;20189;-72
2022/12/12 09:57:12;;;;;;;0.10;0.10;;;-2.40;99.90;-3.90;96282.00;;;;5075033;28;20194;-72
2022/12/12 09:59:51;;;;;;;0.20;0.20;;;-2.20;99.90;-3.90;96267.00;;;;5074391;28;20221;-71
2022/12/12 10:03:01;;;;;;;0.20;0.20;;;-2.30;99.90;-3.80;96277.00;;;;5075251;28;20440;-71
2022/12/12 10:05:37;;;;;;;0.10;0.10;;;-2.20;99.90;-3.80;96277.00;;;;5074374;28;20182;-71
2022/12/12 10:08:19;;;;;;;0.10;0.10;;;-2.20;99.90;-3.60;96286.00;;;;5074665;28;20910;-71
2022/12/12 10:10:53;;;;;;;0.20;0.20;;;-2.00;99.90;-3.50;96278.00;;;;5075387;28;20265;-75
2022/12/12 10:13:26;;;;;;;0.10;0.10;;;-1.90;99.90;-3.50;96279.00;;;;5075293;28;20247;-71
2022/12/12 10:16:02;;;;;;;0.10;0.10;;;-1.90;99.90;-3.60;96274.00;;;;5074748;28;20194;-71
2022/12/12 10:18:36;;;;;;;0.20;0.20;;;-2.00;99.90;-3.60;96281.00;;;;5075860;28;20225;-72
2022/12/12 10:21:14;;;;;;;0.10;0.10;;;-1.90;99.90;-3.50;96278.00;;;;5076289;28;20272;-73
2022/12/12 10:23:49;;;;;;;0.10;0.10;;;-1.90;99.90;-3.30;96300.00;;;;5073958;28;20193;-75
2022/12/12 10:26:21;;;;;;;0.10;0.10;;;-1.70;99.90;-3.30;96278.00;;;;5074013;28;20193;-71
2022/12/12 10:28:54;;;;;;;0.10;0.10;;;-1.70;99.90;-3.20;96269.00;;;;5077413;28;20209;-72
2022/12/12 10:31:39;;;;;;;0.10;0.10;;;-1.60;99.90;-3.30;96292.00;;;;5073900;28;20200;-73
2022/12/12 10:34:26;;;;;;;0.20;0.20;;;-1.70;99.90;-3.20;96279.00;;;;5073346;28;20201;-72
2022/12/12 10:37:15;;;;;;;0.20;0.20;;;-1.60;99.90;-3.00;96278.00;;;;5073751;28;20193;-73
2022/12/12 10:39:59;;;;;;;0.17;0.17;;;-1.40;99.90;-3.00;96293.00;;;;5073470;28;20271;-72
2022/12/12 10:42:38;;;;;;;0.20;0.20;;;-1.40;99.90;-3.10;96288.00;;;;5073799;28;20198;-72
2022/12/12 10:45:30;;;;;;;0.10;0.10;;;-1.40;99.90;-2.90;96297.00;;;;5079139;28;20739;-72
2022/12/12 10:48:01;;;;;;;0.10;0.10;;;-1.30;99.90;-2.90;96292.00;;;;5073322;28;20202;-73
2022/12/12 10:50:35;;;;;;;0.10;0.10;;;-1.30;99.90;-2.90;96269.00;;;;5073496;28;20190;-72
2022/12/12 10:53:08;;;;;;;0.10;0.10;;;-1.20;99.90;-2.90;96275.00;;;;5073301;28;20189;-72
2022/12/12 10:55:47;;;;;;;0.10;0.10;;;-1.20;99.90;-3.10;96278.00;;;;5073920;28;20240;-72
2022/12/12 10:58:17;;;;;;;0.10;0.10;;;-1.40;99.90;-3.10;96272.00;;;;5074171;28;20593;-72
2022/12/12 11:00:48;;;;;;;0.20;0.20;;;-1.40;99.90;-3.10;96177.00;;;;5073597;28;20263;-72
2022/12/12 11:03:27;;;;;;;0.20;0.20;;;-1.40;99.90;-2.90;96316.00;;;;5072380;28;20189;-72
2022/12/12 11:05:57;;;;;;;0.10;0.10;;;-1.30;99.90;-2.90;96318.00;;;;5073074;28;20197;-72
2022/12/12 11:08:32;;;;;;;0.10;0.10;;;-1.30;99.90;-3.00;96288.00;;;;5072722;28;20210;-73
2022/12/12 11:11:06;;;;;;;0.10;0.10;;;-1.30;99.90;-3.20;96275.00;;;;5072423;28;20193;-72
2022/12/12 11:13:49;;;;;;;0.20;0.20;;;-1.50;99.90;-3.20;96278.00;;;;5073156;28;20672;-72
2022/12/12 11:16:21;;;;;;;0.10;0.10;;;-1.50;99.90;-3.10;96278.00;;;;5073261;28;20248;-74
2022/12/12 11:19:06;;;;;;;0.20;0.20;;;-1.40;99.90;-2.90;96277.00;;;;5072852;28;20290;-73
2022/12/12 11:21:38;;;;;;;0.10;0.10;;;-1.30;99.90;-2.80;96282.00;;;;5073029;28;20185;-73
2022/12/12 11:24:14;;;;;;;0.10;0.10;;;-1.20;99.90;-2.90;96280.00;;;;5073153;28;20186;-72
2022/12/12 11:26:48;;;;;;;0.10;0.10;;;-1.20;99.90;-2.90;96278.00;;;;5073310;28;20189;-74
2022/12/12 11:29:34;;;;;;;0.10;0.10;;;-1.20;99.90;-2.70;96280.00;;;;5073611;28;20205;-72
2022/12/12 11:32:03;;;;;;;0.15;0.15;;;-1.10;99.90;-2.70;96287.00;;;;5073935;28;20190;-72
2022/12/12 11:34:39;;;;;;;0.10;0.10;;;-1.10;99.90;-2.60;96330.00;;;;5077447;28;20203;-72
2022/12/12 11:37:14;;;;;;;0.10;0.10;;;-1.00;99.90;-2.50;96302.00;;;;5084350;28;20250;-72